sensor_id;sensor_type;location;lat;lon;timestamp;pressure;altitude;pressure_sealevel;temperature;humidity
64908;BME280;69061;52.236;5.188;2023-08-06T00:00:13;100415.22;;;17.08;100.00
64908;BME280;69061;52.236;5.188;2023-08-06T00:02:41;100426.22;;;17.14;100.00
64908;BME280;69061;52.236;5.188;2023-08-06T00:05:07;100424.31;;;17.14;99.98
64908;BME280;69061;52.236;5.188;2023-08-06T00:07:37;100426.31;;;17.10;99.92
64908;BME280;69061;52.236;5.188;2023-08-06T00:10:04;100420.25;;;17.06;99.93
64908;BME280;69061;52.236;5.188;2023-08-06T00:12:31;100425.28;;;17.04;100.00
64908;BME280;69061;52.236;5.188;2023-08-06T00:14:58;100434.00;;;17.08;99.66
64908;BME280;69061;52.236;5.188;2023-08-06T00:17:24;100427.06;;;17.11;100.00
64908;BME280;69061;52.236;5.188;2023-08-06T00:19:53;100411.13;;;17.04;100.00
64908;BME280;69061;52.236;5.188;2023-08-06T00:22:19;100417.97;;;17.05;99.99
64908;BME280;69061;52.236;5.188;2023-08-06T00:24:46;100423.19;;;17.12;99.79
64908;BME280;69061;52.236;5.188;2023-08-06T00:27:13;100421.69;;;17.11;100.00
64908;BME280;69061;52.236;5.188;2023-08-06T00:29:41;100428.91;;;17.14;99.87
64908;BME280;69061;52.236;5.188;2023-08-06T00:32:08;100426.97;;;17.14;100.00
64908;BME280;69061;52.236;5.188;2023-08-06T00:34:35;100428.09;;;17.17;99.99
64908;BME280;69061;52.236;5.188;2023-08-06T00:37:03;100425.41;;;17.17;99.66
64908;BME280;69061;52.236;5.188;2023-08-06T00:39:30;100425.47;;;17.13;99.32
64908;BME280;69061;52.236;5.188;2023-08-06T00:41:58;100433.09;;;17.15;98.94
64908;BME280;69061;52.236;5.188;2023-08-06T00:44:26;100420.94;;;17.10;98.99
64908;BME280;69061;52.236;5.188;2023-08-06T00:46:53;100425.78;;;17.15;99.05
64908;BME280;69061;52.236;5.188;2023-08-06T00:49:20;100417.00;;;17.15;98.82
64908;BME280;69061;52.236;5.188;2023-08-06T00:51:47;100424.00;;;17.09;98.77
64908;BME280;69061;52.236;5.188;2023-08-06T00:54:15;100424.84;;;17.06;98.83
64908;BME280;69061;52.236;5.188;2023-08-06T00:56:43;100424.94;;;17.02;100.00
64908;BME280;69061;52.236;5.188;2023-08-06T00:59:10;100430.59;;;17.08;99.63
64908;BME280;69061;52.236;5.188;2023-08-06T01:01:38;100414.28;;;16.98;99.69
64908;BME280;69061;52.236;5.188;2023-08-06T01:04:04;100421.91;;;17.00;99.38
64908;BME280;69061;52.236;5.188;2023-08-06T01:06:37;100418.31;;;17.07;99.53
64908;BME280;69061;52.236;5.188;2023-08-06T01:09:13;100429.38;;;17.09;99.69
64908;BME280;69061;52.236;5.188;2023-08-06T01:11:54;100419.41;;;17.09;99.01
64908;BME280;69061;52.236;5.188;2023-08-06T01:14:28;100419.84;;;17.08;98.86
64908;BME280;69061;52.236;5.188;2023-08-06T01:16:58;100403.06;;;17.04;99.03
64908;BME280;69061;52.236;5.188;2023-08-06T01:19:25;100424.00;;;17.09;99.25
64908;BME280;69061;52.236;5.188;2023-08-06T01:21:53;100415.16;;;17.12;99.05
64908;BME280;69061;52.236;5.188;2023-08-06T01:24:19;100417.84;;;17.12;98.96
64908;BME280;69061;52.236;5.188;2023-08-06T01:26:53;100416.63;;;17.13;98.73
64908;BME280;69061;52.236;5.188;2023-08-06T01:29:25;100412.53;;;17.08;98.60
64908;BME280;69061;52.236;5.188;2023-08-06T01:31:55;100421.63;;;17.14;98.80
64908;BME280;69061;52.236;5.188;2023-08-06T01:34:24;100420.84;;;17.14;98.49
64908;BME280;69061;52.236;5.188;2023-08-06T01:36:53;100412.13;;;17.10;97.84
64908;BME280;69061;52.236;5.188;2023-08-06T01:39:20;100423.09;;;17.15;98.07
64908;BME280;69061;52.236;5.188;2023-08-06T01:41:47;100421.63;;;17.14;98.16
64908;BME280;69061;52.236;5.188;2023-08-06T01:44:14;100416.16;;;17.18;97.90
64908;BME280;69061;52.236;5.188;2023-08-06T01:46:41;100420.84;;;17.14;97.42
64908;BME280;69061;52.236;5.188;2023-08-06T01:49:08;100425.78;;;17.15;97.18
64908;BME280;69061;52.236;5.188;2023-08-06T01:51:35;100420.09;;;17.13;97.74
64908;BME280;69061;52.236;5.188;2023-08-06T01:54:03;100420.53;;;17.12;97.82
64908;BME280;69061;52.236;5.188;2023-08-06T01:56:29;100425.47;;;17.13;97.59
64908;BME280;69061;52.236;5.188;2023-08-06T01:58:56;100411.63;;;17.15;97.96
64908;BME280;69061;52.236;5.188;2023-08-06T02:01:23;100406.00;;;17.09;97.71
64908;BME280;69061;52.236;5.188;2023-08-06T02:03:49;100420.03;;;17.17;97.93
64908;BME280;69061;52.236;5.188;2023-08-06T02:06:16;100417.00;;;17.15;98.63
64908;BME280;69061;52.236;5.188;2023-08-06T02:08:42;100404.91;;;17.07;98.88
64908;BME280;69061;52.236;5.188;2023-08-06T02:11:10;100423.78;;;17.20;99.23
64908;BME280;69061;52.236;5.188;2023-08-06T02:13:37;100437.56;;;17.22;99.23
64908;BME280;69061;52.236;5.188;2023-08-06T02:16:06;100430.25;;;17.22;99.06
64908;BME280;69061;52.236;5.188;2023-08-06T02:18:33;100429.81;;;17.24;98.76
64908;BME280;69061;52.236;5.188;2023-08-06T02:21:00;100427.50;;;17.26;98.85
64908;BME280;69061;52.236;5.188;2023-08-06T02:23:27;100432.88;;;17.26;99.30
64908;BME280;69061;52.236;5.188;2023-08-06T02:25:58;100422.19;;;17.22;98.89
64908;BME280;69061;52.236;5.188;2023-08-06T02:28:26;100429.00;;;17.27;98.68
64908;BME280;69061;52.236;5.188;2023-08-06T02:30:53;100426.22;;;17.30;99.39
64908;BME280;69061;52.236;5.188;2023-08-06T02:33:20;100424.22;;;17.34;99.07
64908;BME280;69061;52.236;5.188;2023-08-06T02:35:46;100422.31;;;17.35;98.90
64908;BME280;69061;52.236;5.188;2023-08-06T02:38:13;100423.03;;;17.36;98.60
64908;BME280;69061;52.236;5.188;2023-08-06T02:40:43;100423.88;;;17.32;97.78
64908;BME280;69061;52.236;5.188;2023-08-06T02:43:10;100430.78;;;17.33;97.93
64908;BME280;69061;52.236;5.188;2023-08-06T02:45:38;100416.31;;;17.27;98.63
64908;BME280;69061;52.236;5.188;2023-08-06T02:48:05;100421.88;;;17.37;98.49
64908;BME280;69061;52.236;5.188;2023-08-06T02:50:37;100412.78;;;17.30;97.91
64908;BME280;69061;52.236;5.188;2023-08-06T02:53:04;100412.91;;;17.27;97.47
64908;BME280;69061;52.236;5.188;2023-08-06T02:55:31;100416.50;;;17.37;98.55
64908;BME280;69061;52.236;5.188;2023-08-06T02:57:57;100418.03;;;17.38;98.19
64908;BME280;69061;52.236;5.188;2023-08-06T03:00:24;100417.66;;;17.36;97.53
64908;BME280;69061;52.236;5.188;2023-08-06T03:02:52;100413.16;;;17.32;97.59
64908;BME280;69061;52.236;5.188;2023-08-06T03:05:19;100415.75;;;17.36;98.40
64908;BME280;69061;52.236;5.188;2023-08-06T03:07:46;100414.56;;;17.37;98.36
64908;BME280;69061;52.236;5.188;2023-08-06T03:10:13;100412.66;;;17.38;98.45
64908;BME280;69061;52.236;5.188;2023-08-06T03:12:39;100417.66;;;17.36;98.26
64908;BME280;69061;52.236;5.188;2023-08-06T03:15:07;100415.84;;;17.32;98.20
64908;BME280;69061;52.236;5.188;2023-08-06T03:17:33;100418.09;;;17.34;97.25
64908;BME280;69061;52.236;5.188;2023-08-06T03:20:02;100407.94;;;17.25;97.08
64908;BME280;69061;52.236;5.188;2023-08-06T03:22:28;100414.31;;;17.31;97.57
64908;BME280;69061;52.236;5.188;2023-08-06T03:24:55;100423.53;;;17.30;97.68
64908;BME280;69061;52.236;5.188;2023-08-06T03:27:21;100418.53;;;17.32;97.45
64908;BME280;69061;52.236;5.188;2023-08-06T03:29:49;100418.16;;;17.30;97.17
64908;BME280;69061;52.236;5.188;2023-08-06T03:32:15;100420.94;;;17.27;97.00
64908;BME280;69061;52.236;5.188;2023-08-06T03:34:42;100414.97;;;17.19;97.51
64908;BME280;69061;52.236;5.188;2023-08-06T03:37:10;100420.69;;;17.21;97.47
64908;BME280;69061;52.236;5.188;2023-08-06T03:39:37;100422.63;;;17.21;97.74
64908;BME280;69061;52.236;5.188;2023-08-06T03:42:03;100419.19;;;17.20;98.16
64908;BME280;69061;52.236;5.188;2023-08-06T03:44:30;100413.88;;;17.16;98.12
64908;BME280;69061;52.236;5.188;2023-08-06T03:46:57;100393.41;;;17.06;98.25
64908;BME280;69061;52.236;5.188;2023-08-06T03:49:24;100413.56;;;17.14;98.36
64908;BME280;69061;52.236;5.188;2023-08-06T03:51:50;100414.72;;;17.13;98.32
64908;BME280;69061;52.236;5.188;2023-08-06T03:54:18;100422.78;;;17.13;98.51
64908;BME280;69061;52.236;5.188;2023-08-06T03:56:45;100414.72;;;17.13;98.52
64908;BME280;69061;52.236;5.188;2023-08-06T03:59:12;100403.06;;;17.04;98.71
64908;BME280;69061;52.236;5.188;2023-08-06T04:01:38;100411.63;;;17.15;99.74
64908;BME280;69061;52.236;5.188;2023-08-06T04:04:05;100414.66;;;17.17;100.00
64908;BME280;69061;52.236;5.188;2023-08-06T04:06:31;100410.72;;;17.22;100.00
64908;BME280;69061;52.236;5.188;2023-08-06T04:08:58;100420.53;;;17.28;100.00
64908;BME280;69061;52.236;5.188;2023-08-06T04:11:26;100406.44;;;17.24;100.00
64908;BME280;69061;52.236;5.188;2023-08-06T04:13:53;100416.94;;;17.35;100.00
64908;BME280;69061;52.236;5.188;2023-08-06T04:16:20;100414.16;;;17.39;100.00
64908;BME280;69061;52.236;5.188;2023-08-06T04:18:47;100420.28;;;17.39;100.00
64908;BME280;69061;52.236;5.188;2023-08-06T04:21:14;100414.91;;;17.39;100.00
64908;BME280;69061;52.236;5.188;2023-08-06T04:23:40;100414.06;;;17.42;100.00
64908;BME280;69061;52.236;5.188;2023-08-06T04:26:07;100433.47;;;17.50;100.00
64908;BME280;69061;52.236;5.188;2023-08-06T04:28:35;100427.66;;;17.51;100.00
64908;BME280;69061;52.236;5.188;2023-08-06T04:31:02;100430.72;;;17.54;99.98
64908;BME280;69061;52.236;5.188;2023-08-06T04:33:28;100435.31;;;17.53;99.29
64908;BME280;69061;52.236;5.188;2023-08-06T04:35:55;100436.81;;;17.54;99.02
64908;BME280;69061;52.236;5.188;2023-08-06T04:38:23;100442.19;;;17.54;98.91
64908;BME280;69061;52.236;5.188;2023-08-06T04:40:50;100442.53;;;17.56;98.30
64908;BME280;69061;52.236;5.188;2023-08-06T04:43:17;100448.97;;;17.59;97.75
64908;BME280;69061;52.236;5.188;2023-08-06T04:45:47;100445.97;;;17.57;97.28
64908;BME280;69061;52.236;5.188;2023-08-06T04:48:14;100447.88;;;17.56;97.40
64908;BME280;69061;52.236;5.188;2023-08-06T04:50:43;100452.53;;;17.56;98.46
64908;BME280;69061;52.236;5.188;2023-08-06T04:53:10;100443.72;;;17.55;98.17
64908;BME280;69061;52.236;5.188;2023-08-06T04:55:37;100452.28;;;17.50;98.74
64908;BME280;69061;52.236;5.188;2023-08-06T04:58:04;100451.66;;;17.59;99.15
64908;BME280;69061;52.236;5.188;2023-08-06T05:00:31;100433.78;;;17.52;99.59
64908;BME280;69061;52.236;5.188;2023-08-06T05:03:00;100452.03;;;17.61;99.46
64908;BME280;69061;52.236;5.188;2023-08-06T05:05:27;100459.59;;;17.66;98.96
64908;BME280;69061;52.236;5.188;2023-08-06T05:07:55;100444.28;;;17.63;98.71
64908;BME280;69061;52.236;5.188;2023-08-06T05:10:23;100449.25;;;17.64;98.25
64908;BME280;69061;52.236;5.188;2023-08-06T05:12:50;100459.81;;;17.72;98.02
64908;BME280;69061;52.236;5.188;2023-08-06T05:15:17;100450.59;;;17.73;98.15
64908;BME280;69061;52.236;5.188;2023-08-06T05:17:44;100457.81;;;17.76;98.19
64908;BME280;69061;52.236;5.188;2023-08-06T05:20:12;100457.81;;;17.76;97.37
64908;BME280;69061;52.236;5.188;2023-08-06T05:22:39;100468.06;;;17.81;97.43
64908;BME280;69061;52.236;5.188;2023-08-06T05:25:06;100477.22;;;17.83;97.63
64908;BME280;69061;52.236;5.188;2023-08-06T05:27:33;100475.63;;;17.86;97.59
64908;BME280;69061;52.236;5.188;2023-08-06T05:30:00;100473.69;;;17.87;97.61
64908;BME280;69061;52.236;5.188;2023-08-06T05:32:26;100480.16;;;17.89;97.27
64908;BME280;69061;52.236;5.188;2023-08-06T05:34:53;100487.78;;;17.91;96.84
64908;BME280;69061;52.236;5.188;2023-08-06T05:37:21;100489.34;;;17.92;97.04
64908;BME280;69061;52.236;5.188;2023-08-06T05:39:48;100496.59;;;17.91;97.09
64908;BME280;69061;52.236;5.188;2023-08-06T05:42:14;100496.97;;;17.93;96.72
64908;BME280;69061;52.236;5.188;2023-08-06T05:44:41;100492.06;;;17.88;96.37
64908;BME280;69061;52.236;5.188;2023-08-06T05:47:08;100497.28;;;17.95;96.43
64908;BME280;69061;52.236;5.188;2023-08-06T05:49:35;100491.91;;;17.95;96.51
64908;BME280;69061;52.236;5.188;2023-08-06T05:52:01;100499.97;;;17.95;96.20
64908;BME280;69061;52.236;5.188;2023-08-06T05:54:32;100496.53;;;17.95;96.16
64908;BME280;69061;52.236;5.188;2023-08-06T05:56:59;100498.06;;;17.96;95.91
64908;BME280;69061;52.236;5.188;2023-08-06T05:59:26;100506.56;;;17.94;96.03
64908;BME280;69061;52.236;5.188;2023-08-06T06:01:52;100502.81;;;17.88;96.18
64908;BME280;69061;52.236;5.188;2023-08-06T06:04:19;100513.44;;;17.95;96.03
64908;BME280;69061;52.236;5.188;2023-08-06T06:06:45;100515.06;;;17.93;96.03
64908;BME280;69061;52.236;5.188;2023-08-06T06:09:12;100520.44;;;17.93;95.97
64908;BME280;69061;52.236;5.188;2023-08-06T06:11:40;100517.75;;;17.93;95.74
64908;BME280;69061;52.236;5.188;2023-08-06T06:14:07;100518.81;;;17.95;95.72
64908;BME280;69061;52.236;5.188;2023-08-06T06:16:33;100509.91;;;17.82;95.10
64908;BME280;69061;52.236;5.188;2023-08-06T06:19:00;100522.13;;;17.83;95.49
64908;BME280;69061;52.236;5.188;2023-08-06T06:21:27;100518.88;;;17.75;95.54
64908;BME280;69061;52.236;5.188;2023-08-06T06:23:54;100529.22;;;17.77;95.66
64908;BME280;69061;52.236;5.188;2023-08-06T06:26:21;100535.75;;;17.76;96.05
64908;BME280;69061;52.236;5.188;2023-08-06T06:28:50;100535.75;;;17.76;95.44
64908;BME280;69061;52.236;5.188;2023-08-06T06:31:16;100547.84;;;17.67;95.24
64908;BME280;69061;52.236;5.188;2023-08-06T06:33:43;100537.25;;;17.60;95.53
64908;BME280;69061;52.236;5.188;2023-08-06T06:36:10;100542.78;;;17.53;95.05
64908;BME280;69061;52.236;5.188;2023-08-06T06:38:37;100537.72;;;17.39;95.85
64908;BME280;69061;52.236;5.188;2023-08-06T06:41:04;100552.22;;;17.41;96.40
64908;BME280;69061;52.236;5.188;2023-08-06T06:43:30;100552.84;;;17.49;96.05
64908;BME280;69061;52.236;5.188;2023-08-06T06:45:59;100546.78;;;17.45;96.04
64908;BME280;69061;52.236;5.188;2023-08-06T06:48:27;100559.06;;;17.46;96.35
64908;BME280;69061;52.236;5.188;2023-08-06T06:50:55;100555.94;;;17.47;95.80
64908;BME280;69061;52.236;5.188;2023-08-06T06:53:21;100566.75;;;17.44;95.13
64908;BME280;69061;52.236;5.188;2023-08-06T06:55:52;100557.03;;;17.33;95.72
64908;BME280;69061;52.236;5.188;2023-08-06T06:58:19;100560.50;;;17.30;96.19
64908;BME280;69061;52.236;5.188;2023-08-06T07:00:46;100561.78;;;17.26;96.69
64908;BME280;69061;52.236;5.188;2023-08-06T07:03:14;100567.81;;;17.30;97.14
64908;BME280;69061;52.236;5.188;2023-08-06T07:05:41;100560.94;;;17.29;96.96
64908;BME280;69061;52.236;5.188;2023-08-06T07:08:08;100568.72;;;17.23;96.40
64908;BME280;69061;52.236;5.188;2023-08-06T07:10:35;100568.03;;;17.19;97.44
64908;BME280;69061;52.236;5.188;2023-08-06T07:13:02;100561.16;;;17.18;97.00
64908;BME280;69061;52.236;5.188;2023-08-06T07:15:28;100560.81;;;17.16;96.67
64908;BME280;69061;52.236;5.188;2023-08-06T07:17:55;100558.13;;;17.16;96.98
64908;BME280;69061;52.236;5.188;2023-08-06T07:20:23;100557.88;;;17.10;96.42
64908;BME280;69061;52.236;5.188;2023-08-06T07:22:50;100558.00;;;17.03;96.38
64908;BME280;69061;52.236;5.188;2023-08-06T07:25:17;100560.47;;;16.94;96.93
64908;BME280;69061;52.236;5.188;2023-08-06T07:27:46;100583.75;;;17.00;97.03
64908;BME280;69061;52.236;5.188;2023-08-06T07:30:12;100580.63;;;17.02;96.62
64908;BME280;69061;52.236;5.188;2023-08-06T07:32:39;100589.88;;;17.01;96.16
64908;BME280;69061;52.236;5.188;2023-08-06T07:35:06;100590.81;;;16.91;96.35
64908;BME280;69061;52.236;5.188;2023-08-06T07:37:36;100595.84;;;16.89;96.19
64908;BME280;69061;52.236;5.188;2023-08-06T07:40:03;100612.41;;;16.83;96.99
64908;BME280;69061;52.236;5.188;2023-08-06T07:42:30;100589.38;;;16.86;97.05
64908;BME280;69061;52.236;5.188;2023-08-06T07:44:58;100603.19;;;16.84;96.76
64908;BME280;69061;52.236;5.188;2023-08-06T07:47:25;100605.16;;;16.80;96.80
64908;BME280;69061;52.236;5.188;2023-08-06T07:49:52;100600.56;;;16.81;97.16
64908;BME280;69061;52.236;5.188;2023-08-06T07:52:18;100603.25;;;16.81;96.51
64908;BME280;69061;52.236;5.188;2023-08-06T07:54:46;100611.03;;;16.75;96.56
64908;BME280;69061;52.236;5.188;2023-08-06T07:57:14;100603.44;;;16.70;97.64
64908;BME280;69061;52.236;5.188;2023-08-06T07:59:41;100599.50;;;16.75;97.84
64908;BME280;69061;52.236;5.188;2023-08-06T08:02:07;100610.25;;;16.75;97.93
64908;BME280;69061;52.236;5.188;2023-08-06T08:04:34;100612.47;;;16.80;98.63
64908;BME280;69061;52.236;5.188;2023-08-06T08:07:01;100608.47;;;16.88;98.72
64908;BME280;69061;52.236;5.188;2023-08-06T08:09:28;100601.16;;;16.92;98.35
64908;BME280;69061;52.236;5.188;2023-08-06T08:11:56;100604.53;;;16.96;98.74
64908;BME280;69061;52.236;5.188;2023-08-06T08:14:24;100606.41;;;16.99;98.71
64908;BME280;69061;52.236;5.188;2023-08-06T08:16:50;100607.09;;;17.04;98.36
64908;BME280;69061;52.236;5.188;2023-08-06T08:19:17;100607.44;;;17.06;99.01
64908;BME280;69061;52.236;5.188;2023-08-06T08:21:44;100604.59;;;17.13;99.47
64908;BME280;69061;52.236;5.188;2023-08-06T08:24:11;100615.91;;;17.24;98.96
64908;BME280;69061;52.236;5.188;2023-08-06T08:26:38;100608.88;;;17.30;98.82
64908;BME280;69061;52.236;5.188;2023-08-06T08:29:06;100605.84;;;17.28;97.96
64908;BME280;69061;52.236;5.188;2023-08-06T08:31:32;100613.44;;;17.33;97.92
64908;BME280;69061;52.236;5.188;2023-08-06T08:34:04;100619.47;;;17.38;98.16
64908;BME280;69061;52.236;5.188;2023-08-06T08:36:31;100615.97;;;17.41;97.66
64908;BME280;69061;52.236;5.188;2023-08-06T08:38:57;100624.03;;;17.41;98.09
64908;BME280;69061;52.236;5.188;2023-08-06T08:41:24;100620.84;;;17.46;98.04
64908;BME280;69061;52.236;5.188;2023-08-06T08:43:51;100611.22;;;17.48;97.79
64908;BME280;69061;52.236;5.188;2023-08-06T08:46:20;100620.78;;;17.49;97.47
64908;BME280;69061;52.236;5.188;2023-08-06T08:48:46;100623.06;;;17.51;97.16
64908;BME280;69061;52.236;5.188;2023-08-06T08:51:15;100614.31;;;17.47;97.26
64908;BME280;69061;52.236;5.188;2023-08-06T08:53:44;100615.25;;;17.57;97.83
64908;BME280;69061;52.236;5.188;2023-08-06T08:56:12;100621.31;;;17.61;96.68
64908;BME280;69061;52.236;5.188;2023-08-06T08:58:39;100620.28;;;17.55;96.27
64908;BME280;69061;52.236;5.188;2023-08-06T09:01:07;100623.66;;;17.59;96.91
64908;BME280;69061;52.236;5.188;2023-08-06T09:03:36;100630.81;;;17.65;97.39
64908;BME280;69061;52.236;5.188;2023-08-06T09:06:03;100623.41;;;17.70;97.24
64908;BME280;69061;52.236;5.188;2023-08-06T09:08:34;100634.72;;;17.81;97.02
64908;BME280;69061;52.236;5.188;2023-08-06T09:11:04;100648.75;;;17.89;96.35
64908;BME280;69061;52.236;5.188;2023-08-06T09:13:31;100644.56;;;17.88;96.45
64908;BME280;69061;52.236;5.188;2023-08-06T09:15:57;100654.34;;;17.98;95.51
64908;BME280;69061;52.236;5.188;2023-08-06T09:18:29;100654.88;;;17.89;94.93
64908;BME280;69061;52.236;5.188;2023-08-06T09:20:57;100645.88;;;17.79;95.15
64908;BME280;69061;52.236;5.188;2023-08-06T09:23:27;100664.97;;;17.85;95.60
64908;BME280;69061;52.236;5.188;2023-08-06T09:25:56;100663.03;;;17.85;95.82
64908;BME280;69061;52.236;5.188;2023-08-06T09:28:23;100667.97;;;17.87;95.14
64908;BME280;69061;52.236;5.188;2023-08-06T09:30:52;100678.81;;;17.83;94.96
64908;BME280;69061;52.236;5.188;2023-08-06T09:33:22;100684.06;;;17.71;94.55
64908;BME280;69061;52.236;5.188;2023-08-06T09:35:49;100683.88;;;17.61;95.66
64908;BME280;69061;52.236;5.188;2023-08-06T09:38:17;100684.69;;;17.58;96.13
64908;BME280;69061;52.236;5.188;2023-08-06T09:40:43;100696.97;;;17.59;95.55
64908;BME280;69061;52.236;5.188;2023-08-06T09:43:11;100689.31;;;17.58;95.47
64908;BME280;69061;52.236;5.188;2023-08-06T09:45:38;100693.50;;;17.59;95.78
64908;BME280;69061;52.236;5.188;2023-08-06T09:48:06;100680.28;;;17.48;95.03
64908;BME280;69061;52.236;5.188;2023-08-06T09:50:33;100699.94;;;17.45;95.48
64908;BME280;69061;52.236;5.188;2023-08-06T09:53:02;100697.72;;;17.40;95.56
64908;BME280;69061;52.236;5.188;2023-08-06T09:55:32;100692.13;;;17.30;96.02
64908;BME280;69061;52.236;5.188;2023-08-06T09:57:59;100686.19;;;17.19;97.50
64908;BME280;69061;52.236;5.188;2023-08-06T10:00:26;100694.47;;;17.28;97.54
64908;BME280;69061;52.236;5.188;2023-08-06T10:02:53;100709.06;;;17.27;97.22
64908;BME280;69061;52.236;5.188;2023-08-06T10:05:22;100706.75;;;17.29;97.60
64908;BME280;69061;52.236;5.188;2023-08-06T10:07:49;100699.84;;;17.28;97.95
64908;BME280;69061;52.236;5.188;2023-08-06T10:10:17;100714.38;;;17.31;97.65
64908;BME280;69061;52.236;5.188;2023-08-06T10:12:49;100706.06;;;17.25;96.62
64908;BME280;69061;52.236;5.188;2023-08-06T10:15:19;100697.34;;;17.17;97.65
64908;BME280;69061;52.236;5.188;2023-08-06T10:17:47;100706.13;;;17.22;98.33
64908;BME280;69061;52.236;5.188;2023-08-06T10:20:16;100710.38;;;17.19;97.63
64908;BME280;69061;52.236;5.188;2023-08-06T10:22:44;100712.22;;;17.22;98.14
64908;BME280;69061;52.236;5.188;2023-08-06T10:25:11;100716.44;;;17.23;98.04
64908;BME280;69061;52.236;5.188;2023-08-06T10:27:54;100715.97;;;17.28;98.24
64908;BME280;69061;52.236;5.188;2023-08-06T10:30:22;100714.44;;;17.27;97.53
64908;BME280;69061;52.236;5.188;2023-08-06T10:32:50;100722.88;;;17.29;97.47
64908;BME280;69061;52.236;5.188;2023-08-06T10:35:32;100705.69;;;17.23;97.60
64908;BME280;69061;52.236;5.188;2023-08-06T10:38:05;100716.31;;;17.30;97.91
64908;BME280;69061;52.236;5.188;2023-08-06T10:40:32;100726.94;;;17.38;97.98
64908;BME280;69061;52.236;5.188;2023-08-06T10:43:01;100720.41;;;17.39;96.83
64908;BME280;69061;52.236;5.188;2023-08-06T10:45:28;100723.88;;;17.36;96.52
64908;BME280;69061;52.236;5.188;2023-08-06T10:47:56;100720.91;;;17.30;95.77
64908;BME280;69061;52.236;5.188;2023-08-06T10:50:23;100724.97;;;17.18;96.82
64908;BME280;69061;52.236;5.188;2023-08-06T10:52:50;100724.34;;;17.10;97.27
64908;BME280;69061;52.236;5.188;2023-08-06T10:55:24;100731.53;;;17.17;97.51
64908;BME280;69061;52.236;5.188;2023-08-06T10:57:52;100739.22;;;17.15;97.43
64908;BME280;69061;52.236;5.188;2023-08-06T11:00:20;100736.53;;;17.15;97.28
64908;BME280;69061;52.236;5.188;2023-08-06T11:02:48;100735.41;;;17.12;97.63
64908;BME280;69061;52.236;5.188;2023-08-06T11:05:15;100739.22;;;17.15;97.69
64908;BME280;69061;52.236;5.188;2023-08-06T11:07:41;100743.44;;;17.16;97.61
64908;BME280;69061;52.236;5.188;2023-08-06T11:10:09;100727.03;;;17.10;97.00
64908;BME280;69061;52.236;5.188;2023-08-06T11:12:36;100731.56;;;17.13;96.45
64908;BME280;69061;52.236;5.188;2023-08-06T11:15:04;100741.91;;;17.15;96.83
64908;BME280;69061;52.236;5.188;2023-08-06T11:17:34;100745.34;;;17.15;96.38
64908;BME280;69061;52.236;5.188;2023-08-06T11:20:02;100748.09;;;17.12;97.18
64908;BME280;69061;52.236;5.188;2023-08-06T11:22:29;100747.31;;;17.11;97.33
64908;BME280;69061;52.236;5.188;2023-08-06T11:24:56;100747.28;;;17.15;97.85
64908;BME280;69061;52.236;5.188;2023-08-06T11:27:26;100742.72;;;17.12;97.87
64908;BME280;69061;52.236;5.188;2023-08-06T11:29:52;100748.50;;;17.10;98.96
64908;BME280;69061;52.236;5.188;2023-08-06T11:32:19;100736.31;;;17.06;99.26
64908;BME280;69061;52.236;5.188;2023-08-06T11:34:47;100746.22;;;17.09;99.20
64908;BME280;69061;52.236;5.188;2023-08-06T11:37:14;100753.47;;;17.12;100.00
64908;BME280;69061;52.236;5.188;2023-08-06T11:39:46;100751.94;;;17.11;100.00
64908;BME280;69061;52.236;5.188;2023-08-06T11:42:14;100764.56;;;17.14;99.93
64908;BME280;69061;52.236;5.188;2023-08-06T11:44:41;100763.03;;;17.13;100.00
64908;BME280;69061;52.236;5.188;2023-08-06T11:47:13;100744.31;;;17.09;100.00
64908;BME280;69061;52.236;5.188;2023-08-06T11:49:44;100762.28;;;17.12;99.53
64908;BME280;69061;52.236;5.188;2023-08-06T11:52:16;100769.50;;;17.15;100.00
64908;BME280;69061;52.236;5.188;2023-08-06T11:54:45;100766.03;;;17.19;100.00
64908;BME280;69061;52.236;5.188;2023-08-06T11:57:12;100773.66;;;17.20;99.42
64908;BME280;69061;52.236;5.188;2023-08-06T11:59:39;100776.00;;;17.18;100.00
64908;BME280;69061;52.236;5.188;2023-08-06T12:02:08;100781.72;;;17.20;100.00
64908;BME280;69061;52.236;5.188;2023-08-06T12:04:59;100775.94;;;17.22;100.00
64908;BME280;69061;52.236;5.188;2023-08-06T12:07:28;100770.19;;;17.20;100.00
64908;BME280;69061;52.236;5.188;2023-08-06T12:09:55;100778.06;;;17.30;100.00
64908;BME280;69061;52.236;5.188;2023-08-06T12:12:22;100784.16;;;17.34;100.00
64908;BME280;69061;52.236;5.188;2023-08-06T12:14:48;100771.50;;;17.35;100.00
64908;BME280;69061;52.236;5.188;2023-08-06T12:17:15;100782.88;;;17.43;100.00
64908;BME280;69061;52.236;5.188;2023-08-06T12:19:44;100781.22;;;17.49;100.00
64908;BME280;69061;52.236;5.188;2023-08-06T12:22:10;100785.75;;;17.52;100.00
64908;BME280;69061;52.236;5.188;2023-08-06T12:24:40;100765.66;;;17.40;100.00
64908;BME280;69061;52.236;5.188;2023-08-06T12:27:07;100784.19;;;17.55;100.00
64908;BME280;69061;52.236;5.188;2023-08-06T12:29:33;100783.03;;;17.56;100.00
64908;BME280;69061;52.236;5.188;2023-08-06T12:32:00;100781.81;;;17.60;100.00
64908;BME280;69061;52.236;5.188;2023-08-06T12:34:27;100794.81;;;17.62;100.00
64908;BME280;69061;52.236;5.188;2023-08-06T12:36:54;100792.06;;;17.65;100.00
64908;BME280;69061;52.236;5.188;2023-08-06T12:39:20;100784.34;;;17.67;100.00
64908;BME280;69061;52.236;5.188;2023-08-06T12:41:49;100796.91;;;17.74;100.00
64908;BME280;69061;52.236;5.188;2023-08-06T12:44:15;100795.66;;;17.79;100.00
64908;BME280;69061;52.236;5.188;2023-08-06T12:46:42;100802.91;;;17.82;100.00
64908;BME280;69061;52.236;5.188;2023-08-06T12:49:08;100798.75;;;17.77;99.71